Latest Weather Observations for Kuitpo

IDS60801

Issued at 8:31 am CST Wednesday 18 September 2019 (issued every 10 minutes, with the page automatically refreshed every 10 minutes)

About weather observations | Map of weather stations | Latest weather observations for SA | Other Formats
Station Details ID: 023887 Name: KUITPO FOREST RESERVE Lat: -35.17 Lon: 138.68 Height: 365.0 m
Data from the previous 72 hours. | See also: Recent months at Kuitpo
Date/Time
CST
Temp
°C
App
Temp
°C
Dew
Point
°C
Rel
Hum
%
Delta-T
°C
Wind Press
QNH
hPa
Press
MSL
hPa
Rain since
9am
mm
Dir  Spd
km/h
Gust
km/h
Spd
kts
Gust
kts
18/08:30am 10.7 5.5 0.2 48 4.3 NE 17 19 9 10 1023.6 1023.6 -
18/08:00am 9.4 4.5 -0.2 51 3.9 NE 15 22 8 12 1023.6 1023.6 0.0
18/07:30am 7.9 2.5 -1.1 53 3.5 NE 17 26 9 14 1023.5 1023.5 0.0
18/07:00am 6.6 1.6 -1.5 56 3.1 NE 15 24 8 13 1023.4 1023.4 0.0
18/06:30am 5.7 -0.1 -1.7 59 2.8 NE 19 24 10 13 1023.2 1023.1 0.0
18/06:00am 5.7 -0.1 -1.7 59 2.8 NE 19 26 10 14 1023.0 1022.9 0.0
18/05:30am 5.6 -0.4 -1.3 61 2.6 NE 20 28 11 15 1022.8 1022.7 0.0
18/05:00am 5.4 -0.9 -0.8 64 2.4 NE 22 32 12 17 1022.9 1022.8 0.0
18/04:30am 4.4 -1.4 -0.2 72 1.8 NE 20 28 11 15 1023.0 1022.9 0.0
18/04:00am 4.6 -1.2 0.2 73 1.7 NE 20 26 11 14 1023.2 1023.1 0.0
18/03:30am 4.9 -0.8 0.7 74 1.7 ENE 20 28 11 15 1023.3 1023.2 0.0
18/03:00am 5.7 -0.4 0.1 67 2.2 ENE 22 32 12 17 1023.6 1023.6 0.0
18/02:30am 5.8 0.6 0.4 68 2.1 ENE 17 24 9 13 1024.0 1024.0 0.0
18/02:00am 5.8 0.8 1.3 73 1.8 ENE 17 22 9 12 1024.3 1024.3 0.0
18/01:30am 5.7 0.5 2.2 78 1.4 E 19 24 10 13 1024.7 1024.7 0.0
18/01:00am 5.4 0.7 2.9 84 1.1 E 17 22 9 12 1025.3 1025.2 0.0
18/12:30am 5.9 1.2 3.1 82 1.2 E 17 22 9 12 1025.5 1025.4 0.0
18/12:00am 5.7 0.6 3.2 84 1.1 E 19 24 10 13 1025.6 1025.5 0.0
 
Date/Time
CST
Temp
°C
App
Temp
°C
Dew
Point
°C
Rel
Hum
%
Delta-T
°C
Wind Press
QNH
hPa
Press
MSL
hPa
Rain since
9am
mm
Dir  Spd
km/h
Gust
km/h
Spd
kts
Gust
kts
17/11:30pm 5.7 0.4 3.2 84 1.1 E 20 26 11 14 1025.5 1025.4 0.0
17/11:00pm 5.8 1.1 3.3 84 1.1 E 17 24 9 13 1026.0 1026.0 0.0
17/10:30pm 6.0 0.7 3.0 81 1.3 ESE 20 26 11 14 1026.1 1026.1 0.0
17/10:00pm 5.7 0.3 2.7 81 1.3 ESE 20 26 11 14 1026.3 1026.3 0.0
17/09:30pm 5.8 0.6 2.6 80 1.3 ESE 19 24 10 13 1026.5 1026.5 0.0
17/09:00pm 5.7 0.9 2.4 79 1.4 ESE 17 24 9 13 1026.4 1026.4 0.0
17/08:30pm 6.0 0.6 2.3 77 1.5 ESE 20 28 11 15 1026.2 1026.2 0.0
17/08:00pm 6.0 0.2 2.1 76 1.6 ESE 22 32 12 17 1026.0 1026.0 0.0
17/07:30pm 6.0 0.5 2.1 76 1.6 ESE 20 28 11 15 1026.0 1026.0 0.0
17/07:00pm 6.5 1.6 2.2 74 1.8 SE 17 24 9 13 1026.0 1026.0 0.0
17/06:30pm 7.1 2.2 2.2 71 2.0 SE 17 26 9 14 1025.7 1025.6 0.0
17/06:00pm 8.1 3.4 1.0 61 2.9 ESE 15 22 8 12 1025.6 1025.5 0.0
17/05:30pm 9.5 5.2 0.9 55 3.6 ESE 13 19 7 10 1025.5 1025.4 0.0
17/05:00pm 10.3 6.0 0.9 52 4.0 E 13 19 7 10 1025.3 1025.2 0.0
17/04:30pm 10.6 5.4 0.3 49 4.3 E 17 26 9 14 1024.7 1024.7 0.0
17/04:00pm 11.0 6.3 1.0 50 4.2 ESE 15 22 8 12 1024.9 1024.8 0.0
17/03:30pm 11.1 6.3 0.2 47 4.5 E 15 20 8 11 1025.0 1024.9 0.0
17/03:00pm 11.6 7.2 0.1 45 4.8 E 13 20 7 11 1025.2 1025.1 0.0
17/02:30pm 10.8 5.5 -0.6 45 4.6 ESE 17 26 9 14 1025.4 1025.3 0.0
17/02:00pm 10.8 6.7 0.0 47 4.5 E 11 24 6 13 1025.6 1025.5 0.0
17/01:30pm 11.1 6.4 1.1 50 4.2 E 15 28 8 15 1025.6 1025.5 0.0
17/01:00pm 10.2 5.3 -0.3 48 4.3 E 15 28 8 15 1025.6 1025.5 0.0
17/12:30pm 10.0 4.9 0.6 52 3.9 E 17 28 9 15 1025.8 1025.8 0.0
17/12:00pm 9.6 3.9 0.5 53 3.7 E 20 28 11 15 1026.1 1026.1 0.0
17/11:30am 9.5 3.8 -0.4 50 4.0 ENE 19 30 10 16 1026.2 1026.2 0.0
17/11:00am 8.6 2.7 -0.7 52 3.7 E 20 33 11 18 1026.5 1026.5 0.0
17/10:30am 9.0 3.2 -0.3 52 3.7 ENE 20 33 11 18 1027.0 1027.0 0.0
17/10:00am 8.4 2.8 0.1 56 3.4 ENE 19 30 10 16 1027.1 1027.1 0.0
17/09:30am 8.1 2.5 -0.1 56 3.3 ENE 19 32 10 17 1027.2 1027.2 0.0
17/09:00am 7.6 2.4 -0.1 58 3.1 ENE 17 30 9 16 1027.2 1027.2 0.2
17/08:30am 6.5 0.2 -0.7 60 2.8 ENE 22 30 12 16 1027.0 1027.0 0.2
17/08:00am 6.0 0.9 0.6 68 2.2 ENE 17 26 9 14 1026.9 1026.9 0.2
17/07:30am 5.1 0.8 0.7 73 1.7 ENE 13 19 7 10 1026.6 1026.6 0.2
17/07:00am 4.0 -0.4 0.2 76 1.5 NE 13 20 7 11 1026.5 1026.5 0.2
17/06:30am 3.5 -1.7 0.2 79 1.3 ENE 17 22 9 12 1026.2 1026.2 0.2
17/06:00am 3.3 -2.4 0.5 82 1.1 ENE 20 28 11 15 1025.7 1025.6 0.2
17/05:30am 3.1 -2.0 0.7 84 0.9 ENE 17 22 9 12 1025.5 1025.4 0.2
17/05:00am 3.2 -2.3 0.9 85 0.9 E 19 26 10 14 1025.4 1025.3 0.2
17/04:30am 3.5 -1.8 1.7 88 0.7 E 19 24 10 13 1025.4 1025.3 0.2
17/04:00am 3.5 -1.0 1.9 89 0.6 E 15 19 8 10 1025.4 1025.3 0.2
17/03:30am 4.1 0.0 2.0 86 0.8 E 13 15 7 8 1025.7 1025.6 0.2
17/03:00am 4.0 -0.2 1.9 86 0.8 ESE 13 20 7 11 1025.7 1025.6 0.2
17/02:30am 3.7 -0.1 1.6 86 0.8 E 11 17 6 9 1025.9 1025.9 0.2
17/02:00am 4.3 -0.3 1.7 83 1.0 E 15 19 8 10 1026.0 1026.0 0.2
17/01:30am 4.6 -0.1 1.1 78 1.4 E 15 19 8 10 1026.3 1026.3 0.2
17/01:00am 4.9 0.6 0.7 74 1.7 ESE 13 17 7 9 1026.5 1026.5 0.2
17/12:30am 5.0 0.7 1.1 76 1.6 ESE 13 17 7 9 1026.5 1026.5 0.2
17/12:00am 4.8 0.9 0.9 76 1.5 SE 11 13 6 7 1026.8 1026.8 0.2
 
Date/Time
CST
Temp
°C
App
Temp
°C
Dew
Point
°C
Rel
Hum
%
Delta-T
°C
Wind Press
QNH
hPa
Press
MSL
hPa
Rain since
9am
mm
Dir  Spd
km/h
Gust
km/h
Spd
kts
Gust
kts
16/11:30pm 5.0 0.7 1.1 76 1.6 ESE 13 15 7 8 1026.6 1026.6 0.2
16/11:00pm 4.7 1.2 1.0 77 1.5 SE 9 13 5 7 1026.7 1026.7 0.2
16/10:30pm 5.1 1.2 1.4 77 1.5 SE 11 15 6 8 1026.6 1026.6 0.2
16/10:00pm 5.4 1.2 1.7 77 1.5 SE 13 19 7 10 1026.5 1026.5 0.2
16/09:30pm 5.8 2.0 1.5 74 1.7 ESE 11 19 6 10 1026.5 1026.5 0.2
16/09:00pm 6.0 1.7 1.3 72 1.9 SE 13 19 7 10 1026.2 1026.2 0.2
16/08:30pm 6.1 1.5 1.8 74 1.8 SE 15 24 8 13 1025.9 1025.9 0.2
16/08:00pm 6.4 1.9 2.3 75 1.7 SE 15 24 8 13 1025.7 1025.6 0.2
16/07:30pm 6.8 2.4 2.7 75 1.7 SE 15 26 8 14 1025.6 1025.5 0.2
16/07:00pm 6.8 3.1 2.3 73 1.9 SE 11 19 6 10 1025.3 1025.2 0.2
16/06:30pm 7.1 3.0 2.0 70 2.1 SSE 13 20 7 11 1024.9 1024.8 0.2
16/06:00pm 7.6 2.1 2.1 68 2.3 SSE 20 32 11 17 1024.4 1024.4 0.2
16/05:30pm 8.1 2.7 2.4 67 2.4 SSE 20 43 11 23 1023.9 1023.9 0.2
16/05:00pm 8.8 3.3 1.9 62 2.9 SE 20 43 11 23 1023.6 1023.6 0.2
16/04:30pm 9.2 3.1 2.5 63 2.9 SSE 24 41 13 22 1023.2 1023.1 0.2
16/04:00pm 9.5 3.0 2.4 61 3.1 SSE 26 43 14 23 1022.9 1022.8 0.2
16/03:30pm 10.1 4.1 3.4 63 3.0 SSE 24 43 13 23 1022.7 1022.6 0.2
16/03:00pm 10.4 4.0 3.0 60 3.3 SE 26 44 14 24 1022.6 1022.5 0.2
16/02:30pm 11.0 4.9 2.8 57 3.6 SSE 24 41 13 22 1022.7 1022.6 0.2
16/02:00pm 10.8 4.8 3.1 59 3.4 SE 24 41 13 22 1022.7 1022.6 0.2
16/01:30pm 10.3 4.2 2.7 59 3.3 SSE 24 39 13 21 1022.5 1022.4 0.2
16/01:00pm 10.9 5.2 2.7 57 3.6 SSE 22 41 12 22 1022.3 1022.2 0.2
16/12:30pm 10.5 4.7 4.6 67 2.7 SE 24 39 13 21 1022.3 1022.2 0.2
16/12:00pm 10.5 5.6 4.9 68 2.6 SE 20 37 11 20 1022.3 1022.2 0.2
16/11:30am 9.5 4.7 5.7 77 1.8 SE 20 37 11 20 1022.5 1022.4 0.2
16/11:00am 9.1 3.9 5.7 79 1.6 SSE 22 33 12 18 1022.5 1022.4 0.2
16/10:30am 11.0 7.1 5.3 68 2.7 SE 15 28 8 15 1022.4 1022.3 0.2
16/10:00am 9.5 6.1 6.0 79 1.6 SE 13 20 7 11 1022.4 1022.3 0.2
16/09:30am 9.1 5.0 6.2 82 1.4 SSE 17 30 9 16 1022.0 1021.9 0.0
16/09:00am 9.0 4.9 6.4 84 1.2 SE 17 26 9 14 1021.7 1021.7 3.6
16/08:30am 8.6 4.6 6.6 87 0.9 SE 17 33 9 18 1021.3 1021.3 3.6
16/08:00am 8.2 3.8 6.7 90 0.7 SE 19 30 10 16 1020.5 1020.4 3.6
16/07:30am 8.2 4.3 7.3 94 0.4 SE 17 28 9 15 1020.3 1020.2 3.6
16/07:00am 8.0 4.9 7.4 96 0.3 SE 13 22 7 12 1020.4 1020.3 3.6
16/06:30am 7.9 4.4 7.3 96 0.3 SE 15 20 8 11 1019.8 1019.7 3.6
16/06:00am 7.9 3.7 7.5 97 0.2 SE 19 30 10 16 1018.9 1018.9 3.2
16/05:30am 7.9 3.1 7.3 96 0.3 ESE 22 33 12 18 1018.6 1018.5 3.0
16/05:00am 7.6 3.7 7.0 96 0.3 SE 17 30 9 16 1019.2 1019.1 3.0
16/04:30am 7.2 2.7 6.3 94 0.4 SE 19 32 10 17 1018.0 1017.9 2.8
16/04:00am 7.8 3.5 7.2 96 0.3 SSE 19 39 10 21 1017.7 1017.6 1.6
16/03:30am 8.1 3.0 7.5 96 0.3 SE 24 43 13 23 1017.5 1017.4 1.0
16/03:00am 8.3 4.0 7.2 93 0.5 SSE 19 33 10 18 1017.6 1017.5 0.0
16/02:30am 8.6 3.9 6.1 84 1.2 SE 20 35 11 19 1017.5 1017.4 0.0
16/02:00am 8.6 4.2 6.6 87 0.9 SSE 19 41 10 22 1018.1 1018.0 0.0
16/01:30am 9.1 4.6 6.2 82 1.4 SSE 19 30 10 16 1018.3 1018.2 0.0
16/01:00am 9.2 4.1 5.8 79 1.6 SSE 22 37 12 20 1017.6 1017.5 0.0
16/12:30am 9.4 5.0 7.2 86 1.1 SE 20 33 11 18 1017.5 1017.4 0.0
16/12:00am 9.4 4.5 8.5 94 0.4 SSE 24 35 13 19 1017.7 1017.6 0.0
 
Date/Time
CST
Temp
°C
App
Temp
°C
Dew
Point
°C
Rel
Hum
%
Delta-T
°C
Wind Press
QNH
hPa
Press
MSL
hPa
Rain since
9am
mm
Dir  Spd
km/h
Gust
km/h
Spd
kts
Gust
kts
15/11:30pm 9.8 4.9 9.8 100 0.0 SSE 26 48 14 26 1017.2 1017.1 0.0
15/11:27pm 10.0 4.7 10.0 100 0.0 SSE 28 48 15 26 1017.0 1016.9 0.0
15/11:00pm 10.4 5.6 10.4 100 0.0 SSE 26 39 14 21 1017.1 1017.0 0.0
15/10:30pm 11.0 6.8 11.0 100 0.0 ESE 24 35 13 19 1016.3 1016.1 0.0
15/10:00pm 11.6 7.5 11.3 98 0.2 SE 24 44 13 24 1016.8 1016.7 0.0
15/09:30pm 12.4 9.4 11.8 96 0.3 SE 19 32 10 17 1017.1 1017.0 0.0
15/09:00pm 12.7 9.4 11.6 93 0.6 SSE 20 39 11 21 1017.4 1017.3 0.0
15/08:30pm 13.9 10.4 10.1 78 2.0 SSE 19 37 10 20 1017.2 1017.1 0.0
15/08:00pm 14.8 11.6 10.0 73 2.5 SSE 17 26 9 14 1017.1 1017.0 0.0
15/07:30pm 17.2 15.4 7.8 54 4.8 S 7 11 4 6 1016.8 1016.7 0.0
15/07:00pm 17.8 16.0 7.0 49 5.5 SSE 6 11 3 6 1016.5 1016.4 0.0
15/06:30pm 19.1 17.9 4.8 39 7.0 CALM 0 0 0 0 1016.0 1015.9 0.0
15/06:00pm 19.4 18.2 4.7 38 7.2 CALM 0 0 0 0 1015.6 1015.5 0.0
15/05:30pm 19.8 18.0 5.5 39 7.2 WSW 4 9 2 5 1015.6 1015.5 0.0
15/05:00pm 20.0 17.5 6.7 42 6.8 SW 9 17 5 9 1015.9 1015.8 0.0
15/04:30pm 20.8 17.1 6.4 39 7.4 SW 15 20 8 11 1016.2 1016.0 0.0
15/04:00pm 22.3 18.0 5.3 33 8.6 WSW 17 26 9 14 1015.8 1015.7 0.0
15/03:30pm 23.7 19.9 5.6 31 9.3 W 15 26 8 14 1015.6 1015.5 0.0
15/03:00pm 23.6 19.0 5.5 31 9.3 W 19 30 10 16 1015.6 1015.5 0.0
15/02:30pm 23.1 18.8 5.1 31 9.1 NW 17 35 9 19 1015.5 1015.4 0.0
15/02:00pm 23.3 18.6 5.2 31 9.2 NW 19 30 10 16 1015.6 1015.5 0.0
15/01:30pm 23.6 19.6 6.8 34 8.8 NW 17 33 9 18 1015.9 1015.8 0.0
15/01:00pm 23.1 19.2 7.2 36 8.4 NNW 17 30 9 16 1015.9 1015.8 0.0
15/12:30pm 22.7 18.3 6.5 35 8.4 NW 19 30 10 16 1016.5 1016.4 0.0
15/12:00pm 22.8 19.1 8.1 39 7.9 NNW 17 28 9 15 1017.0 1016.9 0.0
15/11:30am 22.1 18.4 7.9 40 7.5 NNW 17 28 9 15 1017.6 1017.5 0.0
15/11:00am 21.7 18.2 8.6 43 7.0 NNW 17 26 9 14 1018.2 1018.1 0.0
15/10:30am 21.0 16.7 6.9 40 7.3 NW 19 32 10 17 1018.8 1018.8 0.0
15/10:00am 21.8 18.2 8.3 42 7.2 NNW 17 30 9 16 1018.9 1018.9 0.0
15/09:30am 20.4 16.0 6.7 41 7.0 NNW 19 30 10 16 1019.3 1019.2 0.0
15/09:00am 19.8 16.0 7.5 45 6.4 NNW 17 32 9 17 1019.4 1019.3 0.0

Other formats

Comma delimited format used in spreadsheet applications
http://www.bom.gov.au/fwo/IDS60801/IDS60801.94683.axf

JavaScript Object Notation format (JSON) in row-major order
http://www.bom.gov.au/fwo/IDS60801/IDS60801.94683.json

Data quality

Most of these data are generated automatically and are frequently updated. Quality checks on data are not normally performed. It is possible for incorrect values to appear. Refer to information at About Latest Weather Observations and please check the disclaimer before using these data.